This is the latest recevied weather packets stored in our database for station/object N7NKE. If no packets are shown the sender has not sent any weather packets the latest 10 day(s).
| Time | Temp. | Humidity | Pressure | Rain* | Wind** | Luminosity | Snow |
|---|---|---|---|---|---|---|---|
| 1777970404 | 11.11° C | 88% | 1013.8 hPa | 0 mm | - | 0 W/m² | - |
| 1777967104 | 11.67° C | 86% | 1013.6 hPa | 0 mm | - | 0 W/m² | - |
| 1777965604 | 12.22° C | 86% | 1013.1 hPa | 0 mm | - | 0 W/m² | - |
| 1777964404 | 12.22° C | 85% | 1012.8 hPa | 0 mm | - | 0 W/m² | - |
| 1777959904 | 14.44° C | 80% | 1012.1 hPa | 0 mm | - | 0 W/m² | - |
| 1777959604 | 14.44° C | 80% | 1012.1 hPa | 0 mm | - | 0 W/m² | - |
| 1777958704 | 15° C | 79% | 1012 hPa | 0 mm | - | 0 W/m² | - |
| 1777956904 | 15.56° C | 75% | 1011.7 hPa | 0 mm | - | 0 W/m² | - |
| 1777955104 | 17.22° C | 70% | 1011.4 hPa | 0 mm | - | 0 W/m² | - |
| 1777953005 | 19.44° C | 65% | 1010.8 hPa | 0 mm | - | 0 W/m² | - |
| 1777952706 | 19.44° C | 63% | 1010.8 hPa | 0 mm | - | 0 W/m² | - |
| 1777951807 | 20° C | 62% | 1010.5 hPa | 0 mm | - | 0 W/m² | - |
| 1777950006 | 21.11° C | 62% | 1010.1 hPa | 0 mm | - | 11 W/m² | - |
| 1777949105 | 22.22° C | 59% | 1010 hPa | 0 mm | - | 16 W/m² | - |
| 1777948806 | 22.78° C | 60% | 1010 hPa | 0 mm | - | 19 W/m² | - |
| 1777947005 | 23.89° C | 56% | 1009.8 hPa | 0 mm | - | 151 W/m² | - |
| 1777945506 | 24.44° C | 56% | 1009.7 hPa | 0 mm | - | 176 W/m² | - |
| 1777943406 | 25° C | 56% | 1009.8 hPa | 0 mm | - | 237 W/m² | - |
| 1777938605 | 25.56° C | 56% | 1010.1 hPa | 0 mm | - | 566 W/m² | - |
| 1777938005 | 25.56° C | 56% | 1010.1 hPa | 0 mm | - | 594 W/m² | - |
| 1777937705 | 25.56° C | 55% | 1010.2 hPa | 0 mm | - | 608 W/m² | - |
| 1777935005 | 24.44° C | 58% | 1010.6 hPa | 0 mm | - | 684 W/m² | - |
| 1777933505 | 23.89° C | 61% | 1010.9 hPa | 0 mm | - | 766 W/m² | - |
| 1777931105 | 23.33° C | 60% | 1011.3 hPa | 0 mm | - | 835 W/m² | - |
| 1777927205 | 21.67° C | 61% | 1012.4 hPa | 0 mm | - | 863 W/m² | - |
* Rain latest hour (hover to see other rain measurements)
** Current wind speed in m/s (hover to see current wind gust speed)